Time;durP1;ratioP1;P1;durP2;ratioP2;P2;SDS_P1;SDS_P2;PMS_P1;PMS_P2;Temp;Humidity;BMP_temperature;BMP_pressure;BME280_temperature;BME280_humidity;BME280_pressure;Samples;Min_cycle;Max_cycle;Signal;HPM_P1;HPM_P2
2024/01/13 00:02:05;;;;;;;28.13;10.93;;;;;;;2.50;74.06;101651.97;4967852;28;20499;-45
2024/01/13 00:04:31;;;;;;;20.10;10.18;;;;;;;2.48;73.58;101654.44;4967170;28;20046;-49
2024/01/13 00:06:58;;;;;;;24.33;9.45;;;;;;;2.49;74.08;101656.22;4962342;28;20063;-44
2024/01/13 00:09:25;;;;;;;32.10;12.68;;;;;;;2.49;74.53;101651.09;4966067;28;20043;-42
2024/01/13 00:11:52;;;;;;;33.10;11.98;;;;;;;2.47;74.16;101647.59;4957402;28;20051;-47
2024/01/13 00:14:20;;;;;;;18.17;8.48;;;;;;;2.43;73.86;101641.41;4963914;28;20117;-48
2024/01/13 00:16:49;;;;;;;12.35;5.70;;;;;;;2.40;74.33;101640.34;4964056;28;20073;-48
2024/01/13 00:19:16;;;;;;;26.50;10.50;;;;;;;2.42;74.04;101639.63;4967529;28;20062;-53
2024/01/13 00:21:43;;;;;;;21.02;8.77;;;;;;;2.36;74.01;101633.31;4966206;28;20054;-47
2024/01/13 00:24:09;;;;;;;23.10;9.88;;;;;;;2.37;73.76;101627.38;4969056;28;20055;-47
2024/01/13 00:26:36;;;;;;;28.08;10.35;;;;;;;2.34;74.13;101620.44;4959307;28;20039;-47
2024/01/13 00:29:03;;;;;;;11.13;6.45;;;;;;;2.27;74.26;101624.28;4939946;28;20074;-48
2024/01/13 00:31:30;;;;;;;25.90;9.27;;;;;;;2.35;74.23;101622.19;4940575;28;20138;-47
2024/01/13 00:33:56;;;;;;;22.70;9.45;;;;;;;2.34;73.71;101619.53;4947501;28;20057;-48
2024/01/13 00:36:23;;;;;;;26.08;9.73;;;;;;;2.37;74.57;101619.72;4946551;28;20239;-51
2024/01/13 00:38:51;;;;;;;24.73;9.88;;;;;;;2.36;74.75;101616.25;4952639;28;20046;-51
2024/01/13 00:41:18;;;;;;;32.22;9.95;;;;;;;2.36;73.63;101603.47;4958267;28;20047;-49
2024/01/13 00:43:45;;;;;;;25.58;8.73;;;;;;;2.35;73.81;101608.50;4964576;28;20387;-53
2024/01/13 00:46:11;;;;;;;22.92;7.72;;;;;;;2.16;75.06;101595.56;4966521;28;20384;-43
2024/01/13 00:48:38;;;;;;;18.13;8.23;;;;;;;2.13;75.07;101594.53;4967074;28;20050;-47
2024/01/13 00:51:10;;;;;;;14.23;6.68;;;;;;;2.07;75.42;101595.06;4964816;28;20043;-47
2024/01/13 00:53:38;;;;;;;10.57;5.70;;;;;;;2.04;75.75;101595.78;4966187;28;20594;-48
2024/01/13 00:56:06;;;;;;;19.10;9.13;;;;;;;2.09;75.28;101592.59;4965717;28;20606;-50
2024/01/13 00:58:34;;;;;;;22.13;8.55;;;;;;;2.10;74.25;101594.34;4966969;28;20090;-45
2024/01/13 01:01:12;;;;;;;23.88;8.95;;;;;;;2.02;75.16;101587.13;4959045;28;20043;-47
2024/01/13 01:03:42;;;;;;;28.25;10.25;;;;;;;2.05;75.22;101584.75;4966429;28;20043;-47
2024/01/13 01:06:09;;;;;;;26.10;10.52;;;;;;;2.05;75.26;101592.41;4962697;28;20094;-54
2024/01/13 01:08:36;;;;;;;23.77;9.80;;;;;;;2.05;74.60;101584.75;4967740;28;20082;-49
2024/01/13 01:11:07;;;;;;;33.95;13.55;;;;;;;2.07;75.33;101584.84;4961940;28;20058;-45
2024/01/13 01:13:35;;;;;;;27.17;9.77;;;;;;;2.07;74.61;101578.84;4967279;28;20047;-47
2024/01/13 01:16:02;;;;;;;32.50;12.90;;;;;;;2.10;75.22;101569.69;4970299;28;20039;-48
2024/01/13 01:18:30;;;;;;;37.90;15.25;;;;;;;2.13;74.52;101568.97;4967481;28;20050;-47
2024/01/13 01:20:59;;;;;;;41.50;14.55;;;;;;;2.16;75.00;101564.91;4961077;28;20050;-52
2024/01/13 01:23:27;;;;;;;33.92;14.13;;;;;;;2.16;75.08;101558.91;4960075;28;20046;-50
2024/01/13 01:25:54;;;;;;;32.63;13.18;;;;;;;2.13;74.93;101548.50;4962363;28;20059;-44
2024/01/13 01:28:22;;;;;;;52.13;18.92;;;;;;;2.14;74.79;101546.06;4966309;28;20050;-50
2024/01/13 01:30:59;;;;;;;57.95;19.70;;;;;;;2.12;75.01;101542.50;4966236;28;20078;-45
2024/01/13 01:33:27;;;;;;;29.08;11.13;;;;;;;2.05;74.53;101537.84;4967594;28;20142;-46
2024/01/13 01:35:54;;;;;;;88.55;30.13;;;;;;;2.08;74.63;101532.91;4961681;28;20122;-53
2024/01/13 01:38:21;;;;;;;42.92;17.42;;;;;;;2.05;75.91;101525.06;4967505;28;20046;-48
2024/01/13 01:41:05;;;;;;;34.53;13.23;;;;;;;2.00;75.04;101517.16;4962147;28;20046;-52
2024/01/13 01:43:31;;;;;;;62.92;21.42;;;;;;;2.07;74.59;101517.50;4967981;28;20043;-46
2024/01/13 01:46:00;;;;;;;51.30;18.73;;;;;;;2.07;74.64;101517.50;4970117;28;20042;-47
2024/01/13 01:48:34;;;;;;;92.03;29.05;;;;;;;2.08;75.91;101511.56;4969289;28;20146;-45
2024/01/13 01:51:08;;;;;;;60.10;20.73;;;;;;;2.12;74.78;101510.94;4961738;28;20057;-48
2024/01/13 01:53:36;;;;;;;58.30;18.95;;;;;;;2.09;75.12;101505.69;4961558;28;20051;-50
2024/01/13 01:56:11;;;;;;;92.93;26.35;;;;;;;2.12;74.66;101498.16;4964193;28;20057;-53
2024/01/13 01:58:39;;;;;;;50.67;19.63;;;;;;;2.13;74.78;101497.38;4960680;28;20530;-47
2024/01/13 02:01:07;;;;;;;34.00;13.38;;;;;;;2.09;74.77;101503.13;4962874;28;20484;-47
2024/01/13 02:03:35;;;;;;;44.00;18.10;;;;;;;2.10;75.52;101487.88;4963385;28;20046;-47
2024/01/13 02:06:02;;;;;;;21.63;10.48;;;;;;;2.02;75.81;101495.09;4963165;28;20105;-53
2024/01/13 02:08:29;;;;;;;47.40;15.73;;;;;;;2.04;74.67;101487.53;4968688;28;20109;-52
2024/01/13 02:11:07;;;;;;;31.13;11.68;;;;;;;2.02;74.66;101489.09;4965680;28;20054;-57
2024/01/13 02:13:34;;;;;;;80.28;29.00;;;;;;;1.98;74.98;101493.19;4966552;28;20062;-46
2024/01/13 02:16:02;;;;;;;27.02;12.13;;;;;;;1.94;75.09;101496.38;4970239;28;20483;-53
2024/01/13 02:18:29;;;;;;;36.53;16.05;;;;;;;1.97;74.43;101496.53;4970764;28;20054;-48
2024/01/13 02:21:05;;;;;;;27.13;10.73;;;;;;;1.93;74.80;101495.47;4968441;28;20068;-48
2024/01/13 02:23:34;;;;;;;56.50;21.05;;;;;;;1.97;75.03;101488.88;4970637;28;20105;-51
2024/01/13 02:26:02;;;;;;;39.25;14.32;;;;;;;1.98;74.75;101482.97;4969825;28;20047;-48
2024/01/13 02:28:30;;;;;;;49.95;19.38;;;;;;;1.98;74.98;101488.06;4971372;28;20058;-43
2024/01/13 02:31:14;;;;;;;23.23;10.48;;;;;;;1.98;75.73;101476.94;4971307;28;20051;-45
2024/01/13 02:33:44;;;;;;;43.17;15.98;;;;;;;2.00;75.02;101468.59;4969965;28;20054;-48
2024/01/13 02:36:11;;;;;;;22.17;10.43;;;;;;;1.97;74.81;101460.75;4970003;28;20058;-53
2024/01/13 02:38:38;;;;;;;28.60;11.60;;;;;;;2.01;75.30;101460.13;4967193;28;20494;-52
2024/01/13 02:41:05;;;;;;;32.67;13.50;;;;;;;2.03;75.37;101458.53;4965359;28;20495;-50
2024/01/13 02:43:34;;;;;;;40.00;14.85;;;;;;;2.06;75.31;101460.34;4968112;28;20043;-45
2024/01/13 02:46:01;;;;;;;43.22;13.88;;;;;;;2.05;75.80;101449.28;4969795;28;20047;-46
2024/01/13 02:48:31;;;;;;;32.65;12.27;;;;;;;2.02;74.84;101448.22;4962251;28;20066;-45
2024/01/13 02:51:09;;;;;;;26.52;11.40;;;;;;;1.90;76.59;101438.22;4970457;28;20462;-47
2024/01/13 02:53:36;;;;;;;38.88;12.65;;;;;;;1.99;76.22;101443.81;4966364;28;20423;-45
2024/01/13 02:56:03;;;;;;;13.23;8.23;;;;;;;1.99;76.00;101443.81;4968877;28;20054;-47
2024/01/13 02:58:30;;;;;;;25.83;11.13;;;;;;;2.00;76.23;101439.59;4970400;28;20073;-48
2024/01/13 03:01:09;;;;;;;27.35;11.52;;;;;;;2.01;75.94;101426.91;4970873;28;20059;-49
2024/01/13 03:03:37;;;;;;;19.63;8.95;;;;;;;1.97;75.82;101430.09;4969877;28;20125;-52
2024/01/13 03:06:05;;;;;;;34.58;12.52;;;;;;;2.05;74.69;101423.72;4969594;28;20066;-44
2024/01/13 03:08:33;;;;;;;17.17;7.88;;;;;;;2.08;75.86;101414.44;4969822;28;20054;-45
2024/01/13 03:11:08;;;;;;;16.90;8.02;;;;;;;2.02;75.21;101408.22;4968915;28;20125;-50
2024/01/13 03:13:36;;;;;;;33.13;13.52;;;;;;;2.11;76.05;101409.50;4970274;28;20412;-48
2024/01/13 03:16:07;;;;;;;28.88;12.43;;;;;;;2.12;75.42;101413.81;4968207;28;20042;-50
2024/01/13 03:18:34;;;;;;;30.63;13.00;;;;;;;2.14;75.60;101410.56;4974095;28;20046;-53
2024/01/13 03:21:08;;;;;;;27.45;10.65;;;;;;;2.15;75.52;101409.75;4959035;28;20510;-47
2024/01/13 03:23:35;;;;;;;17.73;7.68;;;;;;;2.17;74.78;101397.06;4967674;28;20073;-47
2024/01/13 03:26:03;;;;;;;29.05;12.27;;;;;;;2.17;75.87;101397.06;4967686;28;20049;-47
2024/01/13 03:28:29;;;;;;;22.63;10.63;;;;;;;2.18;75.53;101399.69;4969883;28;20058;-53
2024/01/13 03:31:08;;;;;;;26.02;11.55;;;;;;;2.19;76.00;101392.91;4964883;28;20050;-46
2024/01/13 03:33:35;;;;;;;25.88;9.18;;;;;;;2.21;75.39;101388.75;4966891;28;20047;-47
2024/01/13 03:36:03;;;;;;;28.23;10.25;;;;;;;2.24;76.08;101388.03;4966914;28;20057;-47
2024/01/13 03:38:30;;;;;;;27.80;10.98;;;;;;;2.23;75.71;101371.81;4965006;28;20133;-45
2024/01/13 03:41:07;;;;;;;;;;;;;;;2.22;74.87;101364.94;4969176;28;20047;-50
2024/01/13 03:43:35;;;;;;;21.23;7.68;;;;;;;2.23;75.38;101356.47;4969413;28;19955;-60
2024/01/13 03:46:03;;;;;;;23.20;9.15;;;;;;;2.26;75.44;101351.53;4967611;28;20414;-52
2024/01/13 03:48:30;;;;;;;19.73;8.77;;;;;;;2.30;75.87;101358.56;4969452;28;20047;-46
2024/01/13 03:50:57;;;;;;;12.43;7.15;;;;;;;2.25;76.16;101360.00;4967511;28;20070;-46
2024/01/13 03:53:24;;;;;;;16.10;6.57;;;;;;;2.28;75.67;101370.38;4966693;28;20047;-48
2024/01/13 03:55:51;;;;;;;24.92;9.60;;;;;;;2.33;75.33;101356.97;4967621;28;20063;-48
2024/01/13 03:58:18;;;;;;;15.48;8.15;;;;;;;2.28;76.47;101355.06;4960314;28;20050;-51
2024/01/13 04:00:45;;;;;;;19.08;8.88;;;;;;;2.33;76.52;101362.09;4968425;28;20050;-52
2024/01/13 04:03:15;;;;;;;15.77;7.55;;;;;;;2.35;76.62;101380.91;4968372;28;20051;-50
2024/01/13 04:05:42;;;;;;;16.98;7.05;;;;;;;2.36;76.65;101375.03;4964098;28;20531;-49
2024/01/13 04:08:09;;;;;;;13.43;7.10;;;;;;;2.39;75.99;101377.72;4969384;28;20067;-43
2024/01/13 04:10:37;;;;;;;10.07;7.00;;;;;;;2.39;76.59;101370.94;4968191;28;20038;-45
2024/01/13 04:13:04;;;;;;;10.75;4.80;;;;;;;2.40;76.60;101375.25;4969136;28;20050;-46
2024/01/13 04:15:32;;;;;;;11.25;5.72;;;;;;;2.43;76.60;101365.19;4965122;28;20077;-45
2024/01/13 04:17:59;;;;;;;10.77;6.70;;;;;;;2.44;76.54;101377.16;4966370;28;20046;-57
2024/01/13 04:20:26;;;;;;;11.85;6.03;;;;;;;2.48;76.22;101383.34;4963718;28;20043;-52
2024/01/13 04:22:53;;;;;;;12.52;6.65;;;;;;;2.48;76.39;101388.44;4964297;28;20113;-53
2024/01/13 04:25:20;;;;;;;7.80;4.28;;;;;;;2.50;75.66;101393.66;4967837;28;20129;-51
2024/01/13 04:27:50;;;;;;;10.98;5.80;;;;;;;2.52;76.69;101385.25;4967139;28;20545;-46
2024/01/13 04:30:16;;;;;;;14.75;6.82;;;;;;;2.55;75.95;101385.41;4962903;28;20059;-44
2024/01/13 04:32:43;;;;;;;11.35;6.13;;;;;;;2.56;76.37;101376.94;4965736;28;20077;-53
2024/01/13 04:35:12;;;;;;;9.63;5.45;;;;;;;2.59;76.40;101377.88;4967901;28;20047;-52
2024/01/13 04:37:39;;;;;;;9.75;5.82;;;;;;;2.59;75.89;101383.00;4968523;28;20054;-44
2024/01/13 04:40:07;;;;;;;11.23;4.88;;;;;;;2.61;76.59;101378.84;4963868;28;20049;-48
2024/01/13 04:42:34;;;;;;;8.43;4.93;;;;;;;2.61;76.59;101371.16;4970978;28;20053;-50
2024/01/13 04:45:00;;;;;;;4.30;2.97;;;;;;;2.55;76.61;101364.94;4968473;28;20063;-50
2024/01/13 04:47:27;;;;;;;6.40;4.38;;;;;;;2.62;76.53;101366.13;4961799;28;20174;-55
2024/01/13 04:49:54;;;;;;;13.75;5.35;;;;;;;2.68;76.42;101361.34;4969795;28;20133;-45
2024/01/13 04:52:21;;;;;;;8.90;5.15;;;;;;;2.69;75.54;101357.09;4967570;28;20117;-44
2024/01/13 04:54:47;;;;;;;9.45;4.85;;;;;;;2.71;75.83;101345.28;4967896;28;20097;-51
2024/01/13 04:57:14;;;;;;;6.70;3.63;;;;;;;2.73;75.55;101343.66;4967168;28;20055;-45
2024/01/13 04:59:40;;;;;;;9.77;5.07;;;;;;;2.74;75.73;101340.31;4964630;28;20533;-49
2024/01/13 05:02:08;;;;;;;11.43;5.40;;;;;;;2.76;76.20;101333.56;4967589;28;20058;-49
2024/01/13 05:04:36;;;;;;;7.93;4.32;;;;;;;2.76;75.67;101315.66;4965166;28;20047;-47
2024/01/13 05:07:04;;;;;;;9.13;4.95;;;;;;;2.81;76.25;101315.91;4963590;28;20058;-48
2024/01/13 05:09:31;;;;;;;7.30;2.65;;;;;;;2.81;76.02;101309.06;4965100;28;20651;-45
2024/01/13 05:11:58;;;;;;;8.23;5.65;;;;;;;2.84;75.46;101305.81;4966700;28;20055;-51
2024/01/13 05:14:24;;;;;;;9.30;4.70;;;;;;;2.86;76.23;101306.75;4967751;28;20054;-43
2024/01/13 05:16:51;;;;;;;8.73;4.38;;;;;;;2.90;76.32;101315.47;4967975;28;20065;-46
2024/01/13 05:19:18;;;;;;;6.90;3.75;;;;;;;2.91;76.08;101304.44;4963530;28;20051;-50
2024/01/13 05:21:45;;;;;;;7.97;4.38;;;;;;;2.93;75.80;101306.25;4968843;28;20721;-51
2024/01/13 05:24:14;;;;;;;7.47;4.15;;;;;;;2.96;75.93;101295.28;4970580;28;20058;-50
2024/01/13 05:26:43;;;;;;;6.50;2.85;;;;;;;2.97;75.51;101294.47;4968496;28;20084;-47
2024/01/13 05:29:11;;;;;;;7.25;4.20;;;;;;;2.99;75.82;101300.56;4967475;28;20062;-54
2024/01/13 05:31:38;;;;;;;7.97;4.07;;;;;;;3.01;76.00;101298.94;4970471;28;20042;-47
2024/01/13 05:34:05;;;;;;;3.97;2.33;;;;;;;3.02;75.44;101299.81;4971796;28;20046;-49
2024/01/13 05:36:32;;;;;;;6.32;3.28;;;;;;;3.04;75.73;101299.09;4968986;28;20054;-46
2024/01/13 05:39:00;;;;;;;6.78;4.22;;;;;;;3.06;75.95;101302.63;4968293;28;20129;-47
2024/01/13 05:41:26;;;;;;;6.85;3.45;;;;;;;3.07;76.04;101298.34;4969949;28;20113;-48
2024/01/13 05:43:53;;;;;;;8.02;3.53;;;;;;;3.08;76.16;101295.88;4970387;28;20050;-52
2024/01/13 05:46:20;;;;;;;8.30;3.67;;;;;;;3.10;76.24;101287.41;4970549;28;20499;-46
2024/01/13 05:48:46;;;;;;;8.60;4.18;;;;;;;3.11;76.46;101282.38;4969772;28;20055;-47
2024/01/13 05:51:13;;;;;;;7.85;4.57;;;;;;;3.12;75.68;101288.34;4966972;28;20537;-51
2024/01/13 05:53:40;;;;;;;6.43;3.55;;;;;;;3.12;75.45;101286.69;4965604;28;20054;-48
2024/01/13 05:56:07;;;;;;;4.80;3.35;;;;;;;3.15;76.19;101288.50;4970925;28;20047;-48
2024/01/13 05:58:34;;;;;;;7.68;4.43;;;;;;;3.15;76.00;101280.81;4969149;28;20050;-45
2024/01/13 06:01:01;;;;;;;7.00;4.45;;;;;;;3.16;75.77;101277.44;4966188;28;20054;-54
2024/01/13 06:03:27;;;;;;;5.30;3.60;;;;;;;3.17;75.96;101284.31;4967444;28;20082;-51
2024/01/13 06:05:54;;;;;;;6.00;3.97;;;;;;;3.19;75.50;101283.59;4970904;28;20051;-51
2024/01/13 06:08:21;;;;;;;8.10;4.15;;;;;;;3.19;75.99;101278.50;4967215;28;20110;-44
2024/01/13 06:10:48;;;;;;;8.68;4.32;;;;;;;3.21;75.52;101266.63;4967583;28;20046;-47
2024/01/13 06:13:15;;;;;;;5.72;3.47;;;;;;;3.24;75.83;101262.47;4964694;28;20051;-48
2024/01/13 06:15:41;;;;;;;6.10;3.30;;;;;;;3.24;75.85;101265.88;4966190;28;20047;-44
2024/01/13 06:18:08;;;;;;;5.68;3.55;;;;;;;3.26;75.87;101264.28;4961907;28;20065;-46
2024/01/13 06:20:35;;;;;;;7.95;2.70;;;;;;;3.27;75.42;101260.91;4962593;28;20462;-45
2024/01/13 06:23:02;;;;;;;5.95;4.22;;;;;;;3.28;76.02;101252.41;4968363;28;20050;-47
2024/01/13 06:25:28;;;;;;;7.32;4.85;;;;;;;3.30;75.76;101252.47;4966453;28;20050;-48
2024/01/13 06:27:55;;;;;;;6.60;4.10;;;;;;;3.29;76.26;101251.63;4964899;28;20046;-46
2024/01/13 06:30:22;;;;;;;7.55;3.80;;;;;;;3.30;75.69;101248.25;4966832;28;20046;-45
2024/01/13 06:32:49;;;;;;;6.28;3.30;;;;;;;3.34;75.87;101237.34;4968205;28;20047;-42
2024/01/13 06:35:17;;;;;;;3.38;2.13;;;;;;;3.33;75.54;101240.72;4968213;28;20431;-44
2024/01/13 06:37:44;;;;;;;3.88;2.75;;;;;;;3.33;76.12;101239.81;4970409;28;20062;-47
2024/01/13 06:40:11;;;;;;;6.80;4.05;;;;;;;3.34;75.71;101229.66;4964512;28;20047;-51
2024/01/13 06:42:38;;;;;;;6.35;4.15;;;;;;;3.34;76.05;101229.66;4967775;28;20055;-56
2024/01/13 06:45:06;;;;;;;7.35;3.45;;;;;;;3.36;75.70;101233.97;4966501;28;20046;-47
2024/01/13 06:47:33;;;;;;;4.38;3.20;;;;;;;3.39;75.80;101229.88;4969772;28;20051;-50
2024/01/13 06:50:00;;;;;;;7.65;3.30;;;;;;;3.39;75.94;101229.88;4964402;28;20086;-47
2024/01/13 06:52:26;;;;;;;5.63;3.20;;;;;;;3.40;76.22;101240.97;4967248;28;20042;-51
2024/01/13 06:54:53;;;;;;;5.35;3.45;;;;;;;3.42;75.85;101221.44;4967154;28;20066;-47
2024/01/13 06:57:20;;;;;;;6.07;3.42;;;;;;;3.42;75.77;101224.00;4966583;28;20120;-50
2024/01/13 06:59:47;;;;;;;4.68;2.60;;;;;;;3.42;75.75;101216.31;4967048;28;20423;-46
2024/01/13 07:02:14;;;;;;;5.55;2.60;;;;;;;3.40;75.75;101210.25;4967515;28;20046;-47
2024/01/13 07:04:42;;;;;;;5.00;3.15;;;;;;;3.41;76.09;101212.03;4968091;28;20459;-46
2024/01/13 07:07:09;;;;;;;6.43;3.95;;;;;;;3.43;75.88;101226.66;4962547;28;20054;-48
2024/01/13 07:09:37;;;;;;;6.43;4.35;;;;;;;3.43;76.09;101212.94;4968236;28;20050;-53
2024/01/13 07:12:04;;;;;;;6.35;3.30;;;;;;;3.43;76.00;101210.38;4967569;28;20051;-48
2024/01/13 07:14:31;;;;;;;6.07;3.55;;;;;;;3.44;76.05;101207.00;4965467;28;20064;-45
2024/01/13 07:16:58;;;;;;;5.72;3.72;;;;;;;3.45;76.21;101219.03;4963528;28;20101;-47
2024/01/13 07:19:24;;;;;;;5.80;2.85;;;;;;;3.46;75.81;101220.78;4967888;28;20047;-45
2024/01/13 07:21:52;;;;;;;4.35;2.58;;;;;;;3.47;76.02;101214.84;4964596;28;20047;-51
2024/01/13 07:24:20;;;;;;;4.53;2.85;;;;;;;3.46;76.07;101200.28;4969713;28;20042;-51
2024/01/13 07:26:46;;;;;;;4.57;2.67;;;;;;;3.48;76.05;101193.56;4965902;28;20118;-46
2024/01/13 07:29:17;;;;;;;5.72;2.47;;;;;;;3.49;75.93;101200.44;4964962;28;20167;-45
2024/01/13 07:31:43;;;;;;;4.22;3.25;;;;;;;3.50;75.78;101185.91;4960598;28;20073;-44
2024/01/13 07:34:10;;;;;;;4.18;3.08;;;;;;;3.52;76.28;101195.44;4966605;28;20070;-45
2024/01/13 07:36:37;;;;;;;3.42;2.15;;;;;;;3.53;76.34;101194.63;4964009;28;20464;-47
2024/01/13 07:39:09;;;;;;;4.20;3.60;;;;;;;3.54;76.28;101193.81;4965355;28;20055;-52
2024/01/13 07:41:36;;;;;;;4.22;2.80;;;;;;;3.51;76.25;101178.31;4965473;28;20105;-49
2024/01/13 07:44:03;;;;;;;5.47;2.72;;;;;;;3.43;75.57;101169.41;4965704;28;20050;-47
2024/01/13 07:46:30;;;;;;;3.42;2.72;;;;;;;3.36;75.71;101177.63;4959495;28;20113;-45
2024/01/13 07:48:57;;;;;;;4.15;3.67;;;;;;;3.28;75.18;101175.59;4961343;28;20138;-47
2024/01/13 07:51:25;;;;;;;4.15;2.47;;;;;;;3.20;75.91;101172.69;4962285;28;20078;-48
2024/01/13 07:54:00;;;;;;;4.90;3.00;;;;;;;3.12;75.46;101165.47;4961666;28;20055;-49
2024/01/13 07:56:28;;;;;;;3.85;3.10;;;;;;;3.05;75.22;101167.75;4966953;28;20138;-49
2024/01/13 07:58:55;;;;;;;6.25;5.65;;;;;;;2.97;76.00;101169.06;4962987;28;20060;-51
2024/01/13 08:01:21;;;;;;;40.63;15.13;;;;;;;2.91;76.28;101168.78;4962045;28;20094;-53
2024/01/13 08:04:03;;;;;;;108.63;46.33;;;;;;;2.82;75.45;101148.75;4963298;28;20046;-44
2024/01/13 08:06:30;;;;;;;148.00;57.92;;;;;;;2.77;76.01;101161.31;4962331;28;20681;-54
2024/01/13 08:08:57;;;;;;;62.30;27.38;;;;;;;2.72;75.88;101155.13;4961907;28;20043;-48
2024/01/13 08:11:24;;;;;;;24.80;14.00;;;;;;;2.68;75.84;101150.66;4962567;28;20054;-48
2024/01/13 08:14:03;;;;;;;10.30;6.43;;;;;;;2.65;75.46;101140.28;4964514;28;20053;-47
2024/01/13 08:16:31;;;;;;;12.43;7.28;;;;;;;2.61;76.19;101141.84;4962318;28;20181;-45
2024/01/13 08:19:00;;;;;;;13.07;8.02;;;;;;;2.60;75.94;101146.88;4961966;28;20049;-47
2024/01/13 08:21:27;;;;;;;6.90;5.18;;;;;;;2.59;76.71;101145.09;4960311;28;20117;-44
2024/01/13 08:24:08;;;;;;;4.82;3.53;;;;;;;2.67;76.78;101141.25;4962713;28;20063;-46
2024/01/13 08:26:37;;;;;;;5.18;2.80;;;;;;;2.77;76.48;101145.97;4960102;28;20046;-48
2024/01/13 08:29:04;;;;;;;4.55;3.00;;;;;;;2.89;75.80;101144.78;4959945;28;20173;-45
2024/01/13 08:31:31;;;;;;;6.00;3.50;;;;;;;2.98;75.73;101144.34;4962262;28;20074;-48
2024/01/13 08:34:07;;;;;;;4.43;3.10;;;;;;;3.05;75.64;101137.03;4962132;28;20042;-48
2024/01/13 08:36:35;;;;;;;6.80;5.65;;;;;;;3.19;76.49;101142.78;4967751;28;20153;-55
2024/01/13 08:39:02;;;;;;;7.60;5.10;;;;;;;3.38;76.64;101137.59;4964703;28;20559;-48
2024/01/13 08:41:31;;;;;;;9.55;5.60;;;;;;;3.62;76.20;101127.56;4958032;28;20073;-50
2024/01/13 08:44:01;;;;;;;8.50;5.18;;;;;;;3.81;76.34;101131.78;4965065;28;20065;-42
2024/01/13 08:46:28;;;;;;;10.85;6.50;;;;;;;4.02;76.18;101136.03;4966359;28;20047;-53
2024/01/13 08:48:56;;;;;;;14.88;7.97;;;;;;;4.19;75.73;101134.19;4961901;28;20503;-51
2024/01/13 08:51:23;;;;;;;15.32;8.73;;;;;;;4.38;75.49;101134.94;4963062;28;20468;-49
2024/01/13 08:54:03;;;;;;;6.95;4.38;;;;;;;4.74;75.78;101121.81;4966884;28;20134;-48
2024/01/13 08:56:34;;;;;;;14.13;5.25;;;;;;;5.25;75.55;101117.69;4969794;28;20046;-43
2024/01/13 08:59:03;;;;;;;10.90;6.10;;;;;;;5.72;74.96;101123.59;4964225;28;20074;-49
2024/01/13 09:01:30;;;;;;;13.80;6.88;;;;;;;6.07;73.50;101136.78;4971763;28;20047;-56
2024/01/13 09:04:08;;;;;;;12.98;7.50;;;;;;;6.42;73.79;101134.50;4969203;28;20078;-54
2024/01/13 09:06:35;;;;;;;10.02;5.22;;;;;;;6.76;73.97;101118.38;4950213;28;20792;-53
2024/01/13 09:09:04;;;;;;;11.02;6.38;;;;;;;7.09;72.78;101117.59;4965117;28;20126;-51
2024/01/13 09:11:31;;;;;;;10.05;6.40;;;;;;;7.58;72.15;101127.53;4967109;28;20050;-49
2024/01/13 09:14:09;;;;;;;7.13;4.22;;;;;;;8.20;72.11;101129.13;4966647;28;20330;-47
2024/01/13 09:16:36;;;;;;;11.70;5.88;;;;;;;8.87;71.41;101127.22;4970976;28;20080;-50
2024/01/13 09:19:04;;;;;;;9.00;4.80;;;;;;;9.60;70.71;101120.91;4971169;28;20098;-50
2024/01/13 09:21:31;;;;;;;7.90;4.70;;;;;;;10.37;69.77;101109.25;4967958;28;20043;-46
2024/01/13 09:24:08;;;;;;;8.02;4.75;;;;;;;11.13;69.14;101112.91;4970780;28;20050;-49
2024/01/13 09:26:41;;;;;;;6.40;4.25;;;;;;;11.65;66.40;101110.88;4970901;28;20049;-48
2024/01/13 09:29:08;;;;;;;6.50;4.20;;;;;;;11.78;65.95;101112.72;4961253;28;20072;-51
2024/01/13 09:31:35;;;;;;;6.72;4.47;;;;;;;11.86;66.28;101111.91;4970422;28;20053;-54
2024/01/13 09:34:08;;;;;;;6.07;4.28;;;;;;;12.25;65.83;101102.75;4970644;28;20058;-49
2024/01/13 09:36:37;;;;;;;5.80;3.45;;;;;;;12.82;64.46;101109.16;4970922;28;20419;-52
2024/01/13 09:39:06;;;;;;;11.32;4.03;;;;;;;13.39;63.88;101107.63;4969540;28;20114;-46
2024/01/13 09:41:33;;;;;;;7.22;4.75;;;;;;;14.05;63.44;101117.28;4969243;28;20121;-48
2024/01/13 09:44:13;;;;;;;12.43;5.70;;;;;;;14.71;61.75;101111.97;4970125;28;20396;-50
2024/01/13 09:46:41;;;;;;;13.00;8.02;;;;;;;15.30;60.62;101096.09;4974246;28;20055;-51
2024/01/13 09:49:12;;;;;;;13.80;8.38;;;;;;;15.70;59.77;101108.03;4965227;28;20043;-47
2024/01/13 09:51:40;;;;;;;9.82;6.82;;;;;;;16.02;58.27;101095.66;4961456;28;20098;-53
2024/01/13 09:54:27;;;;;;;10.98;7.43;;;;;;;16.48;58.41;101103.94;4967976;28;20051;-55
2024/01/13 09:56:57;;;;;;;12.80;8.00;;;;;;;16.92;57.12;101110.41;4967890;28;20059;-51
2024/01/13 09:59:28;;;;;;;11.18;8.05;;;;;;;17.27;56.00;101094.28;4963622;28;20054;-52
2024/01/13 10:01:58;;;;;;;11.18;7.25;;;;;;;17.57;55.42;101092.13;4966103;28;20039;-53
2024/01/13 10:04:25;;;;;;;14.95;9.25;;;;;;;17.83;54.09;101088.19;4969095;28;20093;-46
2024/01/13 10:06:51;;;;;;;20.50;12.07;;;;;;;18.14;54.18;101103.47;4968251;28;20054;-52
2024/01/13 10:09:19;;;;;;;16.52;10.40;;;;;;;18.37;53.06;101096.91;4967620;28;20114;-52
2024/01/13 10:12:04;;;;;;;13.65;9.68;;;;;;;18.64;51.82;101099.91;4968194;28;20046;-42
2024/01/13 10:14:33;;;;;;;11.65;6.25;;;;;;;18.81;51.66;101093.47;4966527;28;20421;-47
2024/01/13 10:17:02;;;;;;;15.93;10.07;;;;;;;19.09;51.22;101095.53;4965722;28;20050;-47
2024/01/13 10:19:30;;;;;;;12.35;6.53;;;;;;;19.41;50.42;101088.69;4967825;28;20377;-47
2024/01/13 10:22:05;;;;;;;11.65;8.07;;;;;;;19.65;49.85;101092.50;4965217;28;20077;-50
2024/01/13 10:24:33;;;;;;;26.70;11.43;;;;;;;19.88;49.30;101087.56;4964582;28;20080;-51
2024/01/13 10:27:01;;;;;;;10.82;7.47;;;;;;;20.17;48.80;101088.66;4957321;28;20150;-45
2024/01/13 10:29:32;;;;;;;21.63;8.40;;;;;;;20.24;47.26;101084.94;4958441;28;20475;-50
2024/01/13 10:32:01;;;;;;;6.90;5.88;;;;;;;20.30;46.91;101078.66;4965533;28;20161;-48
2024/01/13 10:34:28;;;;;;;7.30;5.75;;;;;;;20.36;46.84;101088.16;4965197;28;20054;-51
2024/01/13 10:37:11;;;;;;;44.55;18.30;;;;;;;20.43;46.77;101084.41;4969224;28;20055;-52
2024/01/13 10:39:41;;;;;;;24.17;11.13;;;;;;;20.36;45.60;101080.25;4964292;28;20054;-54
2024/01/13 10:42:10;;;;;;;35.17;15.63;;;;;;;20.31;45.51;101082.13;4966863;28;20506;-49
2024/01/13 10:44:43;;;;;;;11.63;4.97;;;;;;;20.28;44.93;101076.06;4962032;28;20448;-51
2024/01/13 10:47:14;;;;;;;13.02;8.63;;;;;;;20.11;44.14;101076.50;4967452;28;20074;-48
2024/01/13 10:49:42;;;;;;;42.58;13.70;;;;;;;19.92;44.18;101081.34;4969198;28;20051;-51
2024/01/13 10:52:13;;;;;;;8.02;5.50;;;;;;;19.43;43.03;101075.53;4963038;28;20059;-50
2024/01/13 10:54:40;;;;;;;6.10;4.18;;;;;;;18.70;44.42;101060.44;4960752;28;20069;-50
2024/01/13 10:57:11;;;;;;;5.85;4.68;;;;;;;17.88;45.06;101064.53;4961575;28;20055;-50
2024/01/13 10:59:39;;;;;;;4.93;2.83;;;;;;;16.75;45.40;101070.50;4965628;28;20436;-51
2024/01/13 11:02:10;;;;;;;6.20;2.90;;;;;;;15.85;46.06;101062.66;4965189;28;20601;-47
2024/01/13 11:04:38;;;;;;;5.88;3.95;;;;;;;15.17;47.63;101053.56;4969617;28;20055;-50
2024/01/13 11:07:05;;;;;;;6.53;4.65;;;;;;;14.44;48.74;101061.66;4969275;28;20511;-51
2024/01/13 11:09:33;;;;;;;5.00;3.65;;;;;;;13.83;49.52;101060.00;4969645;28;20129;-53
2024/01/13 11:14:53;;;;;;;7.45;2.88;;;;;;;13.10;50.95;101054.63;5052616;27;20397;-47
2024/01/13 11:17:20;;;;;;;8.68;3.10;;;;;;;12.59;51.79;101051.00;5028605;28;20081;-45
2024/01/13 11:19:47;;;;;;;6.07;2.53;;;;;;;12.12;51.57;101049.00;5013808;28;20053;-50
2024/01/13 11:22:38;;;;;;;4.90;2.88;;;;;;;11.64;53.29;101041.63;5021454;28;20137;-50
2024/01/13 11:25:24;;;;;;;5.47;2.60;;;;;;;11.22;53.29;101036.06;5020988;28;20056;-52
2024/01/13 11:30:37;;;;;;;5.97;2.47;;;;;;;10.78;55.22;101028.66;5015892;28;20398;-47
2024/01/13 11:33:10;;;;;;;4.82;2.35;;;;;;;10.60;54.93;101031.03;4970074;28;20501;-44
2024/01/13 11:35:38;;;;;;;4.95;2.20;;;;;;;10.38;56.35;101015.16;4976521;28;20053;-54
2024/01/13 11:38:08;;;;;;;7.70;2.53;;;;;;;10.23;56.02;101013.25;5008796;28;20074;-52